Tiempo atmosférico en la estación meteorológica de Gran Canaria Aeropuerto, Las Palmas (24 m.)



Fecha
DESCASC
Temp. máxima en grados centígrados (hora)
DESCASC
Temp. mínima en grados centígrados (hora)
DESCASC
Temp. media en grados centígrados
DESCASC
Racha de viento máxima en m/sg (hora)
DESCASC
Velocidad máxima media en intervalos de 10 minutos(hora)
DESCASC
Precipitaciones diarias en mm
DESCASC
Precipitaciones de 00:00 a 06:00 en mm
DESCASC
Precipitaciones de 06:00 a 12:00 en mm
DESCASC
Precipitaciones de 12:00 a 18:00 en mm
DESCASC
Precipitaciones de 18:00 a 24:00 en mm
DESCASC
15-08-2019 27.3 (14:50) 21.2 (04:40) 24.3 18.06 (16:10) 13.61 (12:30) 0 0 0 0 0
14-08-2019 28.9 (16:40) 21 (00:00) 24.9 16.39 (12:30) 12.5 (12:30) 0 0 0 0 0
13-08-2019 26.6 (13:40) 21.3 (00:00) 23.9 18.89 (15:10) 13.89 (16:10) 0 0 0 0 0
12-08-2019 27 (14:30) 22 (00:00) 24.5 18.61 (13:50) 14.72 (14:50) 0 0 0 0 0
11-08-2019 26.9 (12:40) 21.8 (00:00) 24.3 19.72 (12:50) 14.44 (12:50) 0 0 0 0 0
10-08-2019 28.2 (14:50) 22.3 (00:00) 25.3 17.5 (14:50) 13.61 (14:50) 0 0 0 0 0
09-08-2019 26.8 (14:00) 21.4 (00:00) 24.1 15 (17:30) 11.67 (17:00) 0 0 0 0 0
08-08-2019 26 (15:50) 21.2 (00:00) 23.6 12.5 (17:50) 10.56 (17:50) 0 0 0 0 0
07-08-2019 26.9 (14:10) 21.4 (00:00) 24.1 16.11 (12:30) 13.89 (12:40) 0 0 0 0 0
06-08-2019 27.9 (14:20) 22 (00:00) 24.9 18.06 (16:30) 13.61 (14:20) 0 0 0 0 0
05-08-2019 27.8 (15:30) 22 (00:00) 24.9 17.5 (11:40) 13.61 (12:30) 0 0 0 0 0
04-08-2019 27.6 (15:50) 20.7 (00:00) 24.2 18.06 (16:00) 15.28 (14:20) 0 0 0 0 0
03-08-2019 26.1 (14:50) 20.9 (00:00) 23.5 18.06 (12:40) 13.61 (12:40) 0 0 0 0 0
02-08-2019 26.9 (15:30) 21 (00:00) 23.9 18.06 (14:00) 13.61 (17:40) 0 0 0 0 0
01-08-2019 26.8 (14:40) 20.6 (00:00) 23.7 17.5 (15:00) 13.89 (15:00) -- 0 -- 0 0
31-07-2019 26.1 (15:00) 20.8 (00:00) 23.4 16.94 (11:30) 11.94 (15:30) 0 0 0 0 0
30-07-2019 26.1 (15:40) 21.2 (00:00) 23.7 16.39 (14:50) 11.67 (17:50) 0 0 0 0 0
29-07-2019 27 (15:30) 21.6 (00:00) 24.3 18.61 (14:00) 14.17 (13:30) 0 0 0 0 0
28-07-2019 -- (--) -- (--) -- -- (--) -- (--) -- 0 0 -- --
27-07-2019 26.4 (15:20) 21.3 (00:00) 23.8 18.61 (02:10) 13.61 (16:20) 0 0 0 0 0
26-07-2019 27 (17:10) 21.4 (00:00) 24.2 18.06 (12:50) 14.72 (13:50) 0 0 0 0 0
25-07-2019 30 (13:50) 22.5 (00:00) 26.3 16.39 (14:20) 12.22 (14:10) 0 0 0 0 0
24-07-2019 29.8 (16:20) 20.6 (00:00) 25.2 18.06 (02:20) 15 (14:20) 0 0 0 0 0
23-07-2019 26.1 (15:10) 20.3 (00:00) 23.2 18.61 (15:40) 14.17 (15:00) 0 0 0 0 0
22-07-2019 26.2 (15:10) 20.8 (00:00) 23.5 18.89 (13:40) 14.17 (16:40) 0 0 0 0 0
21-07-2019 26.4 (15:20) 21.4 (00:00) 23.9 18.06 (13:30) 13.61 (18:00) 0 0 0 0 0
20-07-2019 26.9 (15:40) 20.8 (00:00) 23.8 17.5 (15:20) 13.61 (14:40) 0 0 0 0 0
19-07-2019 26.8 (15:30) 20.9 (00:00) 23.8 18.61 (13:40) 12.5 (11:20) 0 0 0 0 0

Gráficas

Temp. máximas Temp. mínimas Temp. medias Precipitaciones Rachas de viento máximas Velocidades máximas media en intervalos de 10 minutos

Datos horarios

Fecha y hora oficial Temperatura (ºC) Velocidad del viento (km/h) Dirección del viento Racha (km/h) Dirección de racha Precipitación (mm) Presión (hPa) Tendencia (hPa) Humedad (%)
2019-08-17 23:00:00 28.6 26 Norte 45 Norte 0 1007.9 1.5 37
2019-08-17 22:00:00 28.8 24 Norte 42 Norte 0 1007.5 1.4 38
2019-08-17 21:00:00 28.7 27 Norte 42 Norte 0 1007 1 39
2019-08-17 20:00:00 27.8 28 Norte 48 Norte 0 1006.4 -0.1 53
2019-08-17 19:00:00 27.8 30 Norte 52 Norte 0 1006.1 -0.7 56
2019-08-17 18:00:00 29 35 Norte 54 Norte 0 1006 -0.6 53
2019-08-17 17:00:00 29.7 34 Norte 55 Norte 0 1006.5 -0.3 49
2019-08-17 16:00:00 29.1 42 Norte 59 Norte 0 1006.8 -0.3 53
2019-08-17 15:00:00 29.6 31 Norte 45 Norte 0 1006.6 -0.7 53
2019-08-17 14:00:00 29.9 31 Norte 50 Norte 0 1006.8 -0.5 52
2019-08-17 13:00:00 29.3 37 Norte 52 Norte 0 1007.1 0 54
2019-08-17 12:00:00 28.4 35 Norte 55 Norte 0 1007.3 0.2 57
2019-08-17 11:00:00 26.3 34 Norte 55 Norte 0 1007.3 0.3 65
2019-08-17 10:00:00 25.3 44 Norte 55 Norte 0 1007.1 0.7 69
2019-08-17 09:00:00 23.9 33 Norte 52 Norte 0 1007.1 0.7 75
2019-08-17 08:00:00 23.4 27 Norte 52 Norte 0 1007 0.7 77
2019-08-17 07:00:00 23.3 29 Norte 45 Norte 0 1006.4 -0.5 76
2019-08-17 06:00:00 23.9 27 Norte 41 Norte 0 1006.4 -0.6 72
2019-08-17 05:00:00 24.5 27 Norte 41 Norte 0 1006.3 -1.1 67
2019-08-17 04:00:00 24.4 28 Norte 48 Norte 0 1006.9 -0.6 68
2019-08-17 03:00:00 24.8 31 Norte 52 Norte 0 1007 -0.9 65
2019-08-17 02:00:00 24.2 33 Norte -- -- -- 1007.4 -0.4 71
2019-08-17 01:00:00 24.8 31 Norte 54 Norte 0 1007.5 0.4 67
2019-08-17 00:00:00 24.2 34 Norte 58 Norte 0 1007.9 0.9 73
2019-08-16 23:00:00 24.1 33 Norte 55 Norte 0 1007.8 1.1 76
2019-08-16 22:00:00 24.4 35 Norte 59 Norte 0 1007.1 0.7 74
2019-08-16 21:00:00 24.3 35 Norte 58 Norte 0 1007 0.8 76
2019-08-16 20:00:00 25.2 38 Norte 54 Norte 0 1006.7 0.2 71
2019-08-16 19:00:00 26 36 Norte 52 Norte 0 1006.4 -0.7 67
2019-08-16 18:00:00 27.8 36 Norte 52 Norte 0 1006.2 -1.1 59
2019-08-16 17:00:00 28.1 34 Norte 52 Norte 0 1006.5 -1.1 59
2019-08-16 16:00:00 28.5 36 Norte 54 Norte 0 1007.1 -0.9 57
2019-08-16 15:00:00 31.3 33 Norte 50 Norte 0 1007.3 -1.1 47
2019-08-16 14:00:00 29.9 34 Norte 58 Norte 0 1007.6 -0.9 49
2019-08-16 13:00:00 30 39 Norte 58 Norte 0 1008 0 48
2019-08-16 12:00:00 28.2 40 Norte 55 Norte 0 1008.4 0.1 53
2019-08-16 11:00:00 26.4 37 Norte 58 Norte 0 1008.5 0.9 61
2019-08-16 10:00:00 24.2 32 Norte 54 Norte 0 1008 0.2 69
2019-08-16 09:00:00 23.4 33 Norte 52 Norte 0 1008.3 0.6 72
2019-08-16 08:00:00 22.1 35 Norte 52 Norte 0 1007.6 -0.1 80
2019-08-16 07:00:00 21.8 31 Norte 48 Norte 0 1007.8 -0.2 83
2019-08-16 06:00:00 21.9 32 Norte 48 Norte 0 1007.7 -1.1 82
2019-08-16 05:00:00 22 31 Norte 46 Norte 0 1007.7 -1.5 83
2019-08-16 04:00:00 22.1 30 Norte 46 Norte 0 1008 -1.3 80
2019-08-16 03:00:00 22.3 30 Norte 48 Norte 0 1008.8 -0.9 80
2019-08-16 02:00:00 22.3 30 Norte 48 Norte 0 1009.2 -1.2 79
2019-08-16 01:00:00 22.5 31 Norte 58 Norte 0 1009.3 -0.3 79
2019-08-16 00:00:00 22.9 36 Norte 54 Norte 0 1009.7 0.5 76
2019-08-15 23:00:00 23.2 37 Norte 54 Norte 0 1010.4 1.5 76
2019-08-15 22:00:00 24.1 32 Norte 48 Norte 0 1009.6 0.6 70
2019-08-15 21:00:00 23.9 33 Norte 55 Norte 0 1009.2 0 71
2019-08-15 20:00:00 24.1 34 Norte 58 Norte 0 1008.9 -0.6 70
2019-08-15 19:00:00 24.9 34 Norte 58 Norte 0 1009 -0.5 67
2019-08-15 18:00:00 25.7 42 Norte 61 Norte 0 1009.2 -0.8 65
2019-08-15 17:00:00 26.2 37 Norte 65 Norte 0 1009.5 -0.7 62
2019-08-15 16:00:00 26.7 38 Norte 63 Norte 0 1009.5 -1.7 60
2019-08-15 15:00:00 26.8 46 Norte 63 Norte 0 1010 -1.3 61
2019-08-15 14:00:00 26.8 36 Norte 58 Norte 0 1010.2 -0.8 61
2019-08-15 13:00:00 25.1 40 Norte 59 Norte 0 1011.2 0.3 66
2019-08-15 12:00:00 25.8 42 Norte 58 Norte 0 1011.3 0.7 63
2019-08-15 11:00:00 25.6 37 Norte 55 Norte 0 1011 0.7 62
2019-08-15 10:00:00 25 31 Norte 46 Norte 0 1010.9 0.6 57
2019-08-15 09:00:00 24.8 26 Norte 42 Norte 0 1010.6 0.2 49
2019-08-15 08:00:00 21.7 26 Norte 46 Norte 0 1010.3 -0.2 67
2019-08-15 07:00:00 21.5 25 Norte 45 Norte 0 1010.3 -0.3 71
2019-08-15 06:00:00 21.3 29 Norte 46 Norte 0 1010.4 -0.5 73
2019-08-15 05:00:00 21.2 28 Norte 48 Norte 0 1010.5 -1.2 74
2019-08-15 04:00:00 21.3 30 Norte 45 Norte 0 1010.6 -1.6 74
2019-08-15 03:00:00 21.4 32 Norte 50 Norte 0 1010.9 -1.4 75
2019-08-15 02:00:00 21.7 30 Norte 48 Norte 0 1011.7 -0.4 74
2019-08-15 01:00:00 21.8 31 Norte 52 Norte 0 1012.2 0.7 75
2019-08-15 00:00:00 22 31 Norte 50 Norte 0 1012.3 1.5 75
2019-08-14 23:00:00 22.2 32 Norte 48 Norte 0 1012.1 1.6 75
2019-08-14 22:00:00 22.6 30 Norte 42 Norte 0 1011.5 0.9 73
2019-08-14 21:00:00 23.6 27 Norte 41 Norte 0 1010.8 -0.3 66
2019-08-14 20:00:00 24.8 28 Norte 46 Norte 0 1010.5 -0.9 61
2019-08-14 19:00:00 26 35 Norte 50 Norte 0 1010.6 -0.9 55
2019-08-14 18:00:00 26.6 35 Norte 52 Norte 0 1011.1 -0.6 53
2019-08-14 17:00:00 28 38 Norte 50 Norte 0 1011.4 -0.6 49
2019-08-14 16:00:00 27.9 33 Norte 54 Norte 0 1011.5 -1.1 46
2019-08-14 15:00:00 28.6 38 Norte 52 Norte 0 1011.7 -1 46
2019-08-14 14:00:00 27.2 44 Norte 58 Norte 0 1012 -0.6 52
2019-08-14 13:00:00 26.6 37 Norte 59 Norte 0 1012.6 0.4 55
2019-08-14 12:00:00 25.6 33 Norte 55 Norte 0 1012.7 0.7 55
2019-08-14 11:00:00 24.7 31 Norte 55 Norte 0 1012.6 1 59
2019-08-14 10:00:00 23.6 35 Norte 54 Norte 0 1012.2 0.8 61
2019-08-14 09:00:00 22.3 32 Norte 46 Norte 0 1012 0.9 66
2019-08-14 08:00:00 21.2 31 Norte 46 Norte 0 1011.6 0.2 70
2019-08-14 07:00:00 21.1 30 Norte 46 Norte 0 1011.4 -0.1 69
2019-08-14 06:00:00 21.1 26 Norte 50 Norte 0 1011.1 -0.9 68
2019-08-14 05:00:00 21.2 28 Norte 50 Norte 0 1011.4 -1.2 70
2019-08-14 04:00:00 21 31 Norte 46 Norte 0 1011.5 -1.5 71
2019-08-14 03:00:00 21 26 Norte 45 Norte 0 1012 -0.7 72
2019-08-14 02:00:00 21.2 28 Norte 45 Norte 0 1012.6 -0.2 72
2019-08-14 01:00:00 21.5 28 Norte 52 Norte 0 1013 0.8 72
2019-08-14 00:00:00 21.6 33 Norte 50 Norte 0 1012.7 1.2 71
2019-08-13 23:00:00 21.8 32 Norte 55 Norte 0 1012.8 1.9 69
2019-08-13 22:00:00 22 35 Norte 55 Norte 0 1012.2 1.2 69
2019-08-13 21:00:00 22.4 35 Norte 58 Norte 0 1011.5 0.3 68
2019-08-13 20:00:00 23.3 39 Norte 61 Norte 0 1010.9 -0.6 64
2019-08-13 19:00:00 24.2 41 Norte 61 Norte 0 1011 -0.3 59
2019-08-13 18:00:00 24.9 42 Norte 63 Norte 0 1011.2 -0.8 56
2019-08-13 17:00:00 25.4 41 Norte 65 Norte 0 1011.5 -0.9 54
2019-08-13 16:00:00 25.7 44 Norte 68 Norte 0 1011.3 -1.2 56
2019-08-13 15:00:00 26 47 Norte 67 Norte 0 1012 -0.6 56
2019-08-13 14:00:00 26.2 48 Norte 65 Norte 0 1012.4 0 57
2019-08-13 13:00:00 25.8 42 Norte 63 Norte 0 1012.5 0.2 51
2019-08-13 12:00:00 25.8 34 Norte 59 Norte 0 1012.6 0.3 49
2019-08-13 11:00:00 24.9 41 Norte 61 Norte 0 1012.4 0.5 55
2019-08-13 10:00:00 23.5 38 Norte 58 Norte 0 1012.3 0.8 62
2019-08-13 09:00:00 22.4 33 Norte 58 Norte 0 1012.3 1 68
2019-08-13 08:00:00 21.3 33 Norte 52 Norte 0 1011.9 0.5 72
2019-08-13 07:00:00 21.3 33 Norte 52 Norte 0 1011.5 -0.2 70
2019-08-13 06:00:00 21.4 31 Norte 55 Norte 0 1011.3 -0.3 71
2019-08-13 05:00:00 21.5 31 Norte 52 Norte 0 1011.4 -0.6 70
2019-08-13 04:00:00 21.5 30 Norte 52 Norte 0 1011.7 -0.7 73
2019-08-13 03:00:00 21.7 36 Norte 58 Norte 0 1011.6 -1.3 70
2019-08-13 02:00:00 22.1 39 Norte 59 Norte 0 1012 -0.7 65
2019-08-13 01:00:00 21.9 36 Norte 54 Norte 0 1012.4 -0.1 68
2019-08-13 00:00:00 22.4 37 Norte 58 Norte 0 1012.9 1.1 64
2019-08-12 23:00:00 22.4 40 Norte 58 Norte 0 1012.7 1.5 67
2019-08-12 22:00:00 22.5 36 Norte 59 Norte 0 1012.5 1.7 68
2019-08-12 21:00:00 22.9 37 Norte 58 Norte 0 1011.8 1.4 65
2019-08-12 20:00:00 24 35 Norte 61 Norte 0 1011.2 0.6 61
2019-08-12 19:00:00 24.9 48 Norte 65 Norte 0 1010.8 -0.2 58
2019-08-12 18:00:00 25.8 40 Norte 65 Norte 0 1010.4 -1.1 52
2019-08-12 17:00:00 26.4 43 Norte 65 Norte 0 1010.6 -1.3 50
2019-08-12 16:00:00 26 43 Norte 63 Norte 0 1011 -1.4 53
2019-08-12 15:00:00 26.7 50 Norte 67 Norte 0 1011.5 -1.1 55
2019-08-12 14:00:00 26.6 41 Norte 67 Norte 0 1011.9 -0.4 52
2019-08-12 13:00:00 26.1 44 Norte 63 Nordeste 0 1012.4 0.4 54
2019-08-12 12:00:00 25.8 46 Norte 63 Norte 0 1012.6 1.1 56
2019-08-12 11:00:00 25.2 39 Norte 58 Norte 0 1012.3 0.6 56
2019-08-12 10:00:00 24.4 39 Norte 55 Norte 0 1012 0.6 61
2019-08-12 09:00:00 23.4 34 Norte 54 Norte 0 1011.5 0.6 65
2019-08-12 08:00:00 22.3 29 Norte 48 Norte 0 1011.7 0.9 70
2019-08-12 07:00:00 22.2 32 Norte 52 Norte 0 1011.4 0.1 71
2019-08-12 06:00:00 22.2 33 Norte 50 Norte 0 1010.9 -1 69
2019-08-12 05:00:00 22.4 33 Norte 54 Norte 0 1010.8 -1.8 67
2019-08-12 04:00:00 22.5 32 Norte 52 Norte 0 1011.3 -1.6 67
2019-08-12 03:00:00 22.4 30 Norte 55 Norte 0 1011.9 -1.3 66
2019-08-12 02:00:00 22.7 34 Norte 55 Norte 0 1012.6 -0.7 61
2019-08-12 01:00:00 23.4 30 Norte 50 Norte 0 1012.9 -0.1 49
2019-08-12 00:00:00 23.8 31 Norte 58 Norte 0 1013.2 0.7 42
2019-08-11 23:00:00 22.5 33 Norte 54 Norte 0 1013.3 1.5 71
2019-08-11 22:00:00 22.7 34 Norte 55 Norte 0 1013 1.5 71
2019-08-11 21:00:00 23 35 Norte 58 Norte 0 1012.5 0.7 68
2019-08-11 20:00:00 23.9 35 Norte 58 Norte 0 1011.8 0 64
2019-08-11 19:00:00 24.3 35 Norte 61 Norte 0 1011.5 -0.2 64
2019-08-11 18:00:00 24.9 39 Norte 63 Norte 0 1011.8 0 62
2019-08-11 17:00:00 25.9 36 Norte 63 Norte 0 1011.8 -0.5 60
2019-08-11 16:00:00 26 50 Norte 68 Norte 0 1011.7 -1.1 61
2019-08-11 15:00:00 26.3 49 Norte 65 Norte 0 1011.8 -1.2 58
2019-08-11 14:00:00 26.1 45 Norte 68 Norte 0 1012.3 -0.9 64
2019-08-11 13:00:00 26.1 51 Norte 71 Norte 0 1012.8 -0.7 65
2019-08-11 12:00:00 26.2 42 Norte 58 Norte 0 1013 -0.4 62
2019-08-11 11:00:00 25.6 39 Norte 59 Norte 0 1013.2 0 64
2019-08-11 10:00:00 24.9 34 Norte 58 Norte 0 1013.5 0.8 68
2019-08-11 09:00:00 23.8 32 Norte 50 Norte 0 1013.4 1 77
2019-08-11 08:00:00 22.5 32 Norte 54 Norte 0 1013.2 0.9 84
2019-08-11 07:00:00 22.3 32 Norte 50 Norte 0 1012.7 0.2 85
2019-08-11 06:00:00 21.8 31 Norte 54 Norte 0 1012.4 -0.9 94
2019-08-11 05:00:00 22.9 35 Norte 54 Norte 0 1012.3 -1.7 88
2019-08-11 04:00:00 23.7 37 Norte 52 Norte 0 1012.5 -1.5 78
2019-08-11 03:00:00 22.7 33 Norte 50 Norte 0 1013.3 -0.7 86
2019-08-11 02:00:00 22.8 30 Norte 50 Norte 0 1014 0.3 88
2019-08-11 01:00:00 23.7 36 Norte 59 Norte 0 1014 0.5 82
2019-08-11 00:00:00 23.8 37 Norte 52 Norte 0 1014 1.1 80
2019-08-10 23:00:00 24.1 32 Norte 54 Norte 0 1013.7 1.3 76
2019-08-10 22:00:00 24.3 33 Norte 54 Norte 0 1013.5 1.2 73
2019-08-10 21:00:00 24.5 31 Norte 50 Norte 0 1012.9 0.4 73
2019-08-10 20:00:00 26 31 Norte 54 Norte 0 1012.4 -0.4 65
2019-08-10 19:00:00 26.5 32 Norte 50 Norte 0 1012.3 -1.1 64
2019-08-10 18:00:00 27.2 36 Norte 52 Norte 0 1012.5 -1.6 61
2019-08-10 17:00:00 27.3 38 Norte 55 Norte 0 1012.8 -1.6 61
2019-08-10 16:00:00 27.1 42 Norte 58 Norte 0 1013.4 -1.1 62
2019-08-10 15:00:00 27.8 49 Norte 63 Norte 0 1014.1 -0.5 59
2019-08-10 14:00:00 26.9 46 Norte 61 Norte 0 1014.4 0.3 63
2019-08-10 13:00:00 27.4 46 Norte 55 Norte 0 1014.5 0.7 62
2019-08-10 12:00:00 26.8 34 Norte 54 Norte 0 1014.6 1.5 62
2019-08-10 11:00:00 27.6 34 Norte 46 Norte 0 1014.1 1.3 52
2019-08-10 10:00:00 26.5 28 Norte 42 Norte 0 1013.8 1.6 53
2019-08-10 09:00:00 26.1 26 Norte 42 Norte 0 1013.1 1.1 42
2019-08-10 08:00:00 23.7 21 Norte 39 Norte 0 1012.8 0.7 56
2019-08-10 07:00:00 24.3 23 Norte 41 Norte 0 1012.2 -0.2 51
2019-08-10 06:00:00 24.1 26 Norte 42 Norte 0 1012 -0.9 56
2019-08-10 05:00:00 23 28 Norte 46 Norte 0 1012.1 -1.5 62
2019-08-10 04:00:00 23.2 28 Norte 46 Norte 0 1012.4 -1.9 61
2019-08-10 03:00:00 22.8 28 Norte 48 Norte 0 1012.9 -1.6 68
2019-08-10 02:00:00 22.4 31 Norte 45 Norte 0 1013.6 -0.5 78
2019-08-10 01:00:00 22.8 26 Norte 45 Norte 0 1014.3 0.6 71
2019-08-10 00:00:00 22.9 27 Norte 41 Norte 0 1014.5 1.5 74
2019-08-09 23:00:00 22.8 23 Norte 37 Norte 0 1014.1 1.5 78
2019-08-09 22:00:00 22.9 25 Norte 39 Norte 0 1013.7 1.4 77
2019-08-09 21:00:00 23.7 26 Norte 39 Norte 0 1013 0.8 71
2019-08-09 20:00:00 24.1 31 Norte 46 Norte 0 1012.6 0.3 74
2019-08-09 19:00:00 24.7 40 Norte 48 Nordeste 0 1012.3 -0.6 70
2019-08-09 18:00:00 25.1 37 Norte 54 Norte 0 1012.2 -1 70
2019-08-09 17:00:00 25.6 42 Norte 50 Norte 0 1012.3 -0.8 67
2019-08-09 16:00:00 25.6 37 Nordeste 45 Nordeste 0 1012.9 -1 67
2019-08-09 15:00:00 25.9 34 Nordeste 42 Norte 0 1013.2 -0.5 65
2019-08-09 14:00:00 26.5 34 Nordeste 42 Nordeste 0 1013.1 -0.4 62
2019-08-09 13:00:00 25.4 31 Norte 39 Nordeste 0 1013.9 1.4 65
2019-08-09 12:00:00 25.2 32 Norte 42 Norte 0 1013.7 1.6 66
2019-08-09 11:00:00 24.4 34 Norte 46 Norte 0 1013.5 1.3 69
2019-08-09 10:00:00 23.8 36 Norte 46 Norte 0 1012.5 0.9 72
2019-08-09 09:00:00 22.5 24 Norte 37 Norte 0 1012.1 0.3 76
2019-08-09 08:00:00 21.4 22 Norte 46 Norte 0 1012.2 0.2 80
2019-08-09 07:00:00 21.5 26 Norte 42 Norte 0 1011.6 -0.6 79
2019-08-09 06:00:00 21.5 26 Norte 41 Norte 0 1011.8 -0.7 79
2019-08-09 05:00:00 21.5 24 Norte 35 Norte 0 1012 -0.9 81
2019-08-09 04:00:00 21.7 25 Norte 39 Norte 0 1012.2 -1.1 80
2019-08-09 03:00:00 21.7 22 Norte 37 Norte 0 1012.5 -0.8 82
2019-08-09 02:00:00 21.8 19 Norte 33 Norte 0 1012.9 -0.2 81
2019-08-09 01:00:00 22.1 22 Norte 37 Norte 0 1013.3 0.9 81
2019-08-09 00:00:00 22.3 25 Norte 35 Norte 0 1013.3 1.5 82
2019-08-08 23:00:00 22.4 23 Norte 35 Norte 0 1013.1 1.7 81
2019-08-08 22:00:00 22.5 24 Norte 37 Norte 0 1012.4 1.2 81
2019-08-08 21:00:00 23 22 Norte 35 Norte 0 1011.8 1.3 78
2019-08-08 20:00:00 23.6 28 Norte 37 Norte 0 1011.4 0.6 75
2019-08-08 19:00:00 24.3 32 Nordeste 42 Nordeste 0 1011.2 0.3 71
2019-08-08 18:00:00 25 37 Nordeste 45 Norte 0 1010.5 -0.8 68
2019-08-08 17:00:00 25.4 34 Nordeste 42 Norte 0 1010.8 -0.7 67
2019-08-08 16:00:00 25.3 31 Nordeste 39 Nordeste 0 1010.9 -0.7 66
2019-08-08 15:00:00 25.3 25 Nordeste 37 Nordeste 0 1011.3 -0.5 67
2019-08-08 14:00:00 25.2 26 Norte 41 Nordeste 0 1011.5 0.1 67
2019-08-08 13:00:00 25.1 32 Nordeste 41 Nordeste 0 1011.6 1 67
2019-08-08 12:00:00 25 28 Nordeste 39 Norte 0 1011.8 1.1 68
2019-08-08 11:00:00 24.5 32 Nordeste 41 Norte 0 1011.4 1 68
2019-08-08 10:00:00 23.7 24 Norte 32 Norte 0 1010.6 0.7 70
2019-08-08 09:00:00 22.5 20 Norte 30 Norte 0 1010.7 0.7 74
2019-08-08 08:00:00 21.2 18 Norte 32 Norte 0 1010.4 0.4 78
2019-08-08 07:00:00 21.4 18 Norte 30 Norte 0 1009.9 0 79
2019-08-08 06:00:00 21.4 18 Norte 32 Norte 0 1010 -0.4 78
2019-08-08 05:00:00 21.4 22 Norte 33 Norte 0 1010 -1 79
2019-08-08 04:00:00 21.6 21 Norte 33 Norte 0 1009.9 -1.5 78
2019-08-08 03:00:00 21.6 20 Norte 33 Norte 0 1010.4 -0.9 77
2019-08-08 02:00:00 21.7 25 Norte 35 Norte 0 1011 -0.5 81
2019-08-08 01:00:00 21.9 24 Norte 39 Norte 0 1011.4 0.3 79
2019-08-08 00:00:00 22.3 26 Norte 41 Norte 0 1011.3 1 77
2019-08-07 23:00:00 22.5 24 Norte 37 Norte 0 1011.5 1.6 75
2019-08-07 22:00:00 22.7 23 Norte 42 Norte 0 1011.1 1.1 76
2019-08-07 21:00:00 23 26 Norte 45 Norte 0 1010.3 0.2 71
2019-08-07 20:00:00 23.9 29 Norte 42 Norte 0 1009.9 -0.6 67
2019-08-07 19:00:00 24.4 30 Norte 48 Norte 0 1010 -0.8 68
2019-08-07 18:00:00 25.6 39 Norte 50 Norte 0 1010.1 -1.2 62
2019-08-07 17:00:00 25.8 41 Norte 52 Nordeste 0 1010.5 -0.7 60
2019-08-07 16:00:00 26.2 43 Norte 54 Norte 0 1010.8 -0.4 59
2019-08-07 15:00:00 26 42 Norte 54 Nordeste 0 1011.3 0.4 60
2019-08-07 14:00:00 26.1 43 Norte 58 Norte 0 1011.2 0.3 57
2019-08-07 13:00:00 25.8 47 Norte 58 Norte 0 1011.2 0.3 59
2019-08-07 12:00:00 25.5 34 Norte 54 Norte 0 1010.9 0.3 61
2019-08-07 11:00:00 24.6 38 Norte 54 Norte 0 1010.9 0.5 65
2019-08-07 10:00:00 23.6 30 Norte 46 Norte 0 1010.9 1.1 72
2019-08-07 09:00:00 22.3 24 Norte 37 Norte 0 1010.6 1 76
2019-08-07 08:00:00 21.5 24 Norte 35 Norte 0 1010.4 1.1 76
2019-08-07 07:00:00 21.4 27 Norte 41 Norte 0 1009.8 0.2 79
2019-08-07 06:00:00 21.5 24 Norte 39 Norte 0 1009.6 -0.5 78
2019-08-07 05:00:00 21.6 26 Norte 37 Norte 0 1009.3 -1.3 75
2019-08-07 04:00:00 21.8 28 Norte 41 Norte 0 1009.6 -1.3 78
2019-08-07 03:00:00 21.8 24 Norte 42 Norte 0 1010.1 -1.1 74
2019-08-07 02:00:00 21.8 26 Norte 46 Norte 0 1010.6 -0.4 74
2019-08-07 01:00:00 22 33 Norte 50 Norte 0 1010.9 0.5 74
2019-08-07 00:00:00 22.4 30 Norte 50 Norte 0 1011.2 1.3 71
2019-08-06 23:00:00 22.4 26 Norte 46 Norte 0 1011 1.5 70
2019-08-06 22:00:00 22.6 30 Norte 48 Norte 0 1010.4 0.9 73
2019-08-06 21:00:00 23.3 31 Norte 50 Norte 0 1009.9 0.5 67
2019-08-06 20:00:00 24.1 34 Norte 58 Norte 0 1009.5 0.2 62
2019-08-06 19:00:00 24.6 35 Norte 55 Norte 0 1009.5 -0.1 62
2019-08-06 18:00:00 26.1 36 Norte 59 Norte 0 1009.4 -0.7 54
2019-08-06 17:00:00 26.6 40 Norte 65 Norte 0 1009.3 -1.4 54
2019-08-06 16:00:00 26.7 39 Norte 61 Norte 0 1009.6 -1.5 55
2019-08-06 15:00:00 27.4 36 Norte 63 Norte 0 1010.1 -1.5 53
2019-08-06 14:00:00 27.2 39 Norte 63 Norte 0 1010.7 -0.9 53
2019-08-06 13:00:00 26.6 41 Norte 59 Norte 0 1011.1 -0.6 54
2019-08-06 12:00:00 25.9 40 Norte 55 Norte 0 1011.6 0.1 57
2019-08-06 11:00:00 24.8 33 Norte 48 Norte 0 1011.6 0.4 61
2019-08-06 10:00:00 23.9 30 Norte 48 Norte 0 1011.7 0.5 65
2019-08-06 09:00:00 22.9 29 Norte 46 Norte 0 1011.5 0.5 70
2019-08-06 08:00:00 22 22 Norte 37 Norte 0 1011.2 -0.1 71
2019-08-06 07:00:00 22.1 24 Norte 46 Noroeste 0 1011.2 -0.3 70
2019-08-06 06:00:00 22.1 30 Norte 48 Norte 0 1011 -0.7 71
2019-08-06 05:00:00 22.1 28 Norte 52 Norte 0 1011.3 -0.7 75
2019-08-06 04:00:00 22.3 31 Norte 46 Norte 0 1011.5 -1.1 75
2019-08-06 03:00:00 22.5 31 Norte 55 Norte 0 1011.7 -0.7 74
2019-08-06 02:00:00 22.6 29 Norte 52 Norte 0 1012 -0.3 71
2019-08-06 01:00:00 22.9 29 Norte 52 Norte 0 1012.6 1 67
2019-08-06 00:00:00 23 31 Norte 52 Noroeste 0 1012.4 1 66
2019-08-05 23:00:00 22.7 31 Norte 52 Norte 0 1012.3 1.2 73
2019-08-05 22:00:00 23.1 29 Norte 52 Norte 0 1011.6 0.8 70
2019-08-05 21:00:00 23.4 33 Norte 55 Norte 0 1011.4 0.6 69
2019-08-05 20:00:00 24.4 33 Norte 58 Norte 0 1011.1 0.3 64
2019-08-05 19:00:00 25.2 36 Norte 55 Norte 0 1010.8 -0.6 62
2019-08-05 18:00:00 26.2 35 Norte 54 Norte 0 1010.8 -0.9 57
2019-08-05 17:00:00 26.2 37 Norte 59 Norte 0 1010.8 -1.2 60
2019-08-05 16:00:00 26.8 41 Norte 59 Norte 0 1011.4 -1.2 58
2019-08-05 15:00:00 27.4 38 Norte 58 Norte 0 1011.7 -0.7 54
2019-08-05 14:00:00 26.5 35 Norte 54 Norte 0 1012 -0.2 54
2019-08-05 13:00:00 26.1 41 Norte 63 Norte 0 1012.6 0.5 56
2019-08-05 12:00:00 26 46 Norte 63 Norte 0 1012.4 0.2 58
2019-08-05 11:00:00 24.8 40 Norte 58 Norte 0 1012.2 0.4 61
2019-08-05 10:00:00 23.7 35 Norte 52 Norte 0 1012.1 0.5 64
2019-08-05 09:00:00 22.7 27 Norte 45 Noroeste 0 1012.2 0.4 70
2019-08-05 08:00:00 22.5 27 Norte 48 Norte 0 1011.8 -0.2 64
2019-08-05 07:00:00 22 24 Norte 42 Norte 0 1011.6 -0.3 73
2019-08-05 06:00:00 22.1 24 Norte 41 Norte 0 1011.8 -0.2 76
2019-08-05 05:00:00 22.2 26 Norte 46 Norte 0 1012 -0.7 75
2019-08-05 04:00:00 22.5 25 Norte 42 Norte 0 1011.9 -1.5 69
2019-08-05 03:00:00 22.6 22 Norte 42 Norte 0 1012 -1.5 66
2019-08-05 02:00:00 22.5 28 Norte 45 Norte 0 1012.7 -0.4 67
2019-08-05 01:00:00 22.7 26 Norte 46 Norte 0 1013.4 0.5 63
2019-08-05 00:00:00 22.5 29 Norte 50 Norte 0 1013.5 0.8 66
2019-08-04 23:00:00 22.6 30 Norte 46 Norte 0 1013.1 1 71
2019-08-04 22:00:00 22.8 31 Norte 48 Norte 0 1012.9 1.4 63
2019-08-04 21:00:00 23.1 32 Norte 48 Norte 0 1012.7 0.6 63
2019-08-04 20:00:00 24 35 Norte 58 Norte 0 1012.1 0.3 61
2019-08-04 19:00:00 25 42 Norte 58 Norte 0 1011.5 -0.4 58
2019-08-04 18:00:00 25.9 44 Norte 58 Norte 0 1012.1 -0.3 55
2019-08-04 17:00:00 25.7 41 Norte 59 Norte 0 1011.8 -0.7 54
2019-08-04 16:00:00 26.9 48 Norte 65 Norte 0 1011.9 -1.1 51
2019-08-04 15:00:00 26.2 44 Norte 61 Norte 0 1012.4 -1 54
2019-08-04 14:00:00 26.4 35 Norte 61 Norte 0 1012.5 -0.5 51
2019-08-04 13:00:00 26.6 33 Norte 55 Norte 0 1013 0.2 49
2019-08-04 12:00:00 25.2 35 Norte 59 Norte 0 1013.4 0.8 55
2019-08-04 11:00:00 24.6 35 Norte 52 Norte 0 1013 0.4 54
2019-08-04 10:00:00 23.6 31 Norte 46 Norte 0 1012.8 0.6 63
2019-08-04 09:00:00 22.6 28 Norte 46 Norte 0 1012.6 0.5 65
2019-08-04 08:00:00 21 22 Norte 39 Norte 0 1012.6 0.6 72
2019-08-04 07:00:00 20.8 24 Norte 41 Norte 0 1012.2 0.1 73
2019-08-04 06:00:00 20.8 23 Norte 37 Norte 0 1012.1 -0.2 68
2019-08-04 05:00:00 20.8 20 Norte 35 Norte 0 1012 -0.9 69
2019-08-04 04:00:00 21 21 Norte 37 Norte 0 1012.1 -1 69
2019-08-04 03:00:00 20.9 21 Norte 41 Norte 0 1012.3 -1.1 67
2019-08-04 02:00:00 21.1 27 Norte 42 Norte 0 1012.9 -0.4 68
2019-08-04 01:00:00 21.4 24 Norte 42 Norte 0 1013.1 0.4 68
2019-08-04 00:00:00 21.6 28 Norte 45 Norte 0 1013.4 1.4 66
2019-08-03 23:00:00 21.8 25 Norte 46 Norte 0 1013.3 1.7 66
2019-08-03 22:00:00 21.9 26 Norte 48 Norte 0 1012.7 1.2 65
2019-08-03 21:00:00 22.3 34 Norte 54 Norte 0 1012 0.4 66
2019-08-03 20:00:00 23.4 31 Norte 54 Norte 0 1011.6 -0.3 61
2019-08-03 19:00:00 24.2 35 Norte 54 Norte 0 1011.5 -0.9 60
2019-08-03 18:00:00 24.8 32 Norte 59 Norte 0 1011.6 -1.2 56
2019-08-03 17:00:00 25.4 42 Norte 63 Norte 0 1011.9 -1.6 54
2019-08-03 16:00:00 25.4 39 Norte 59 Norte 0 1012.4 -1 53
2019-08-03 15:00:00 25.1 39 Norte 61 Norte 0 1012.8 -0.5 56
2019-08-03 14:00:00 25.5 43 Norte 61 Norte 0 1013.5 0.4 55
2019-08-03 13:00:00 24.9 36 Norte 65 Norte 0 1013.4 0.8 58
2019-08-03 12:00:00 24.7 35 Norte 63 Norte 0 1013.3 0.6 59
2019-08-03 11:00:00 23.9 40 Norte 55 Norte 0 1013.1 0.8 60
2019-08-03 10:00:00 23 30 Norte 50 Norte 0 1012.6 0.9 63
2019-08-03 09:00:00 21.9 32 Norte 48 Norte 0 1012.7 0.8 67
2019-08-03 08:00:00 21 27 Norte 42 Norte 0 1012.3 0.2 68
2019-08-03 07:00:00 20.9 30 Norte 45 Norte 0 1011.7 -0.7 69
2019-08-03 06:00:00 20.9 29 Norte 46 Norte 0 1011.9 -1 69
2019-08-03 05:00:00 21.1 21 Norte 39 Norte 0 1012.1 -1.2 73
2019-08-03 04:00:00 21.2 27 Norte 41 Norte 0 1012.4 -1.1 74
2019-08-03 03:00:00 21.5 29 Norte 42 Norte 0 1012.9 -0.6 71
2019-08-03 02:00:00 21.7 24 Norte 41 Norte 0 1013.3 0 69
2019-08-03 01:00:00 21.7 27 Norte 42 Norte 0 1013.5 0.7 71
2019-08-03 00:00:00 21.9 27 Norte 48 Norte 0 1013.5 1.1 68
2019-08-02 23:00:00 22.1 26 Norte 50 Norte 0 1013.3 1.1 70
2019-08-02 22:00:00 22.2 26 Norte 50 Norte 0 1012.8 0.8 67
2019-08-02 21:00:00 22.4 31 Norte 54 Norte 0 1012.4 0.4 67
2019-08-02 20:00:00 23.4 35 Norte 55 Norte 0 1012.2 0.1 63
2019-08-02 19:00:00 24.2 37 Norte 58 Norte 0 1012 -0.6 60
2019-08-02 18:00:00 25.1 42 Norte 65 Norte 0 1012 -1 60
2019-08-02 17:00:00 25.6 47 Norte 61 Norte 0 1012.1 -1.3 58
2019-08-02 16:00:00 26.2 46 Norte 58 Norte 0 1012.6 -1 55
2019-08-02 15:00:00 26.1 46 Norte 59 Norte 0 1013 -0.8 52
2019-08-02 14:00:00 25.9 47 Norte 65 Norte 0 1013.4 -0.3 55
2019-08-02 13:00:00 26 45 Norte 58 Norte 0 1013.6 0.2 52
2019-08-02 12:00:00 25.1 46 Norte 58 Norte 0 1013.8 0.6 59
2019-08-02 11:00:00 23.8 40 Norte 54 Norte 0 1013.7 1 61
2019-08-02 10:00:00 23.1 28 Norte 45 Norte 0 1013.4 1.2 64
2019-08-02 09:00:00 21.8 26 Norte 46 Norte 0 1013.2 0.9 67
2019-08-02 08:00:00 21 22 Norte 39 Norte 0 1012.7 0.3 71
2019-08-02 07:00:00 21.3 22 Norte 35 Norte 0 1012.2 -0.1 72
2019-08-02 06:00:00 21.5 14 Norte 35 Norte 0 1012.3 -0.2 66
2019-08-02 05:00:00 21.6 22 Norte 41 Norte 0 1012.4 -0.4 70
2019-08-02 04:00:00 21.3 23 Norte 39 Norte 0 1012.3 -0.6 68
2019-08-02 03:00:00 21.2 26 Norte 45 Norte 0 1012.5 -0.6 67
2019-08-02 02:00:00 21.3 28 Norte 45 Norte 0 1012.8 0 68
2019-08-02 01:00:00 21.4 26 Norte 46 Norte 0 1012.9 0.4 67
2019-08-02 00:00:00 21.6 29 Norte 54 Norte 0 1013.1 1.1 66
2019-08-01 23:00:00 21.7 30 Norte 50 Norte 0 1012.8 0.9 66
2019-08-01 22:00:00 21.9 31 Norte 52 Norte 0 1012.5 1.3 65
2019-08-01 21:00:00 22.3 32 Norte 54 Norte 0 1012 0.7 63
2019-08-01 20:00:00 23.4 34 Norte 50 Norte 0 1011.9 0.7 61
2019-08-01 19:00:00 24.3 34 Norte 55 Norte 0 1011.2 -0.1 56
2019-08-01 18:00:00 24.7 39 Norte 61 Norte 0 1011.3 -0.4 54
2019-08-01 17:00:00 25.7 33 Norte 58 Norte 0 1011.2 -0.9 53
2019-08-01 16:00:00 25.9 41 Norte 63 Norte 0 1011.3 -1.3 55
2019-08-01 15:00:00 26.1 50 Norte 63 Norte 0 1011.7 -1.1 56
2019-08-01 14:00:00 26 37 Norte 61 Norte 0 1012.1 -0.5 49
2019-08-01 13:00:00 25.8 42 Norte 55 Norte 0 1012.6 0.4 51
2019-08-01 12:00:00 25.6 42 Norte 54 Norte -- 1012.8 1 52
2019-08-01 11:00:00 24.5 39 Norte 50 Norte -- 1012.6 1.1 55
2019-08-01 10:00:00 23.6 36 Norte 46 Norte 0 1012.2 1.5 61
2019-08-01 09:00:00 22.4 26 Norte 41 Norte 0 1011.8 1.2 62
2019-08-01 08:00:00 20.9 19 Norte 39 Norte 0 1011.5 0.7 67
2019-08-01 07:00:00 20.8 21 Norte 42 Norte 0 1010.7 -0.2 65
2019-08-01 06:00:00 20.8 24 Norte 41 Norte 0 1010.6 -0.6 68
2019-08-01 05:00:00 20.8 24 Norte 42 Norte 0 1010.8 -0.4 64
2019-08-01 04:00:00 20.9 24 Norte 42 Norte 0 1010.9 -0.9 65
2019-08-01 03:00:00 20.9 23 Norte 41 Norte 0 1011.2 -0.9 65
2019-08-01 02:00:00 21 28 Norte 45 Norte 0 1011.2 -0.5 66
2019-08-01 01:00:00 21.1 24 Norte 45 Norte 0 1011.8 0.9 66
2019-08-01 00:00:00 21.3 29 Norte 45 Norte 0 1012.1 1.8 68
2019-07-31 23:00:00 21.3 26 Norte 52 Norte 0 1011.7 1.5 65
2019-07-31 22:00:00 21.6 33 Norte 55 Norte 0 1010.9 0.9 66
2019-07-31 21:00:00 22.1 30 Norte 54 Norte 0 1010.3 0.2 62
2019-07-31 20:00:00 23 30 Norte 54 Norte 0 1010.2 0.3 60
2019-07-31 19:00:00 24.1 30 Norte 54 Norte 0 1010 -0.6 58
2019-07-31 18:00:00 24.9 33 Norte 55 Norte 0 1010.1 -0.8 52
2019-07-31 17:00:00 25.1 38 Norte 61 Norte 0 1009.9 -1.5 49
2019-07-31 16:00:00 25.5 37 Norte 58 Norte 0 1010.6 -1.1 48
2019-07-31 15:00:00 26 39 Norte 59 Norte 0 1010.9 -1 49
2019-07-31 14:00:00 25.4 34 Norte 54 Norte 0 1011.4 -0.2 50
2019-07-31 13:00:00 24.8 36 Norte 52 Norte 0 1011.7 0.2 52
2019-07-31 12:00:00 24.9 31 Norte 61 Norte 0 1011.9 1 48
2019-07-31 11:00:00 23.2 33 Norte 52 Norte 0 1011.6 1.1 56
2019-07-31 10:00:00 22.3 33 Norte 52 Norte 0 1011.5 1.2 60
2019-07-31 09:00:00 22.4 30 Norte 42 Norte 0 1010.9 1 56
2019-07-31 08:00:00 20.8 25 Norte 45 Norte 0 1010.5 0.5 63
2019-07-31 07:00:00 21.1 28 Norte 46 Noroeste 0 1010.3 0.1 63
2019-07-31 06:00:00 20.9 28 Norte 50 Norte 0 1009.9 -0.7 62
2019-07-31 05:00:00 21.1 29 Norte 50 Norte 0 1010 -0.9 66
2019-07-31 04:00:00 21.1 26 Norte 48 Norte 0 1010.2 -1.7 69
2019-07-31 03:00:00 21 27 Norte 46 Norte 0 1010.6 -1.9 70
2019-07-31 02:00:00 21.1 29 Norte 48 Norte 0 1010.9 -1.4 70
2019-07-31 01:00:00 21 31 Norte 52 Norte 0 1011.9 -0.1 69
2019-07-31 00:00:00 21.2 28 Norte 54 Norte 0 1012.5 0.9 71
2019-07-30 23:00:00 21.5 31 Norte 52 Norte 0 1012.3 1.1 69
2019-07-30 22:00:00 21.6 32 Norte 52 Norte 0 1012 1.2 70
2019-07-30 21:00:00 22 32 Norte 52 Norte 0 1011.6 0.7 70
2019-07-30 20:00:00 22.9 39 Norte 59 Norte 0 1011.2 0.1 63
2019-07-30 19:00:00 23.9 35 Norte 55 Norte 0 1010.8 -0.9 59
2019-07-30 18:00:00 23.9 39 Norte 58 Noroeste 0 1010.9 -1.2 59
2019-07-30 17:00:00 25.3 31 Norte 55 Norte 0 1011.1 -1.3 56
2019-07-30 16:00:00 24.2 33 Norte 58 Norte 0 1011.7 -1.3 63
2019-07-30 15:00:00 24.4 37 Norte 59 Norte 0 1012.1 -0.9 62
2019-07-30 14:00:00 25.3 35 Noroeste 52 Noroeste 0 1012.4 -0.6 55
2019-07-30 13:00:00 23.8 32 Norte 55 Norte 0 1013 0.2 59
2019-07-30 12:00:00 23.5 36 Norte 54 Norte 0 1013 0.7 65
2019-07-30 11:00:00 22.6 29 Norte 50 Norte 0 1013 1.1 71
2019-07-30 10:00:00 22.3 34 Norte 52 Norte 0 1012.8 1.4 73
2019-07-30 09:00:00 22.2 31 Norte 48 Norte 0 1012.3 1.4 74
2019-07-30 08:00:00 21.7 30 Norte 48 Norte 0 1011.9 0.8 77
2019-07-30 07:00:00 22 31 Norte 50 Norte 0 1011.4 0.3 75
2019-07-30 06:00:00 23.3 30 Norte 52 Noroeste 0 1010.9 -0.8 64
2019-07-30 05:00:00 22.5 28 Norte 58 Norte 0 1011.1 -1 71
2019-07-30 04:00:00 22.7 30 Norte 48 Norte 0 1011.1 -1.8 73
2019-07-30 03:00:00 23 26 Norte 52 Norte 0 1011.7 -1 69
2019-07-30 02:00:00 22.8 31 Norte 55 Norte 0 1012.1 -0.4 73
2019-07-30 01:00:00 23 29 Norte 54 Norte 0 1012.9 0.8 70
2019-07-30 00:00:00 22.9 33 Norte 50 Norte 0 1012.7 1.2 72
2019-07-29 23:00:00 23 32 Norte 55 Norte 0 1012.5 1.4 70
2019-07-29 22:00:00 23.2 35 Norte 61 Norte 0 1012.1 1.2 64
2019-07-29 21:00:00 23.1 36 Norte 59 Norte 0 1011.5 0.9 64
2019-07-29 20:00:00 23.8 34 Norte 65 Norte 0 1011.1 0.4 62
2019-07-29 19:00:00 24.7 42 Norte 67 Norte 0 1010.9 0.2 56
2019-07-29 18:00:00 25.1 39 Norte 61 Norte 0 1010.6 -0.4 54
2019-07-29 17:00:00 25.5 44 Norte 63 Norte 0 1010.7 -0.8 55
2019-07-29 16:00:00 26.1 44 Norte 65 Norte 0 1010.7 -1 52
2019-07-29 15:00:00 26.2 44 Norte 67 Norte 0 1011 -0.6 51
2019-07-29 14:00:00 26.5 50 Norte 67 Norte 0 1011.5 0 51
2019-07-29 13:00:00 24.9 41 Norte 63 Norte 0 1011.7 0.5 60
2019-07-29 12:00:00 25.3 40 Norte 59 Norte 0 1011.6 0.6 53
2019-07-29 11:00:00 23.9 35 Norte 58 Norte 0 1011.5 1 56
2019-07-29 10:00:00 23.3 34 Norte 54 Norte 0 1011.2 1.1 59
2019-07-29 09:00:00 23 31 Norte 46 Norte 0 1011 1.2 64
2019-07-29 08:00:00 21.6 24 Norte 45 Norte 0 1010.5 0.6 68
2019-07-29 07:00:00 21.7 30 Norte 46 Norte 0 1010.1 0.1 66
2019-07-29 06:00:00 21.7 31 Norte 52 Norte 0 1009.8 -0.4 67
2019-07-29 05:00:00 21.7 30 Norte 50 Norte 0 1009.9 -0.5 66
2019-07-29 04:00:00 21.8 26 Norte 52 Norte 0 1010 -0.7 68
2019-07-29 03:00:00 21.9 28 Norte 48 Norte 0 1010.2 -0.6 68
2019-07-29 02:00:00 22.2 24 Norte 52 Norte 0 1010.4 -0.2 68
2019-07-29 01:00:00 22.1 26 Norte 52 Norte 0 1010.7 0.9 69
2019-07-29 00:00:00 22.2 26 Norte 52 Norte 0 1010.8 1 68
2019-07-28 23:00:00 22.1 36 Norte 55 Norte 0 1010.6 1.5 73
2019-07-28 22:00:00 22.8 33 Norte 54 Norte 0 1009.8 1.7 66
2019-07-28 21:00:00 22.7 32 Norte 55 Norte 0 1009.8 -- 68
2019-07-28 20:00:00 23.9 33 Norte 58 Norte 0 1009.1 0.9 65
2019-07-28 19:00:00 24.7 32 Norte -- -- -- 1008.1 -0.3 61
2019-07-28 18:00:00 -- -- -- -- -- -- -- -- --
2019-07-28 17:00:00 25.9 37 Norte 59 Norte 0 1008.2 -1.1 59
2019-07-28 16:00:00 26.1 42 Norte 63 Norte 0 1008.4 -1.2 61
2019-07-28 15:00:00 26.2 41 Norte 61 Norte 0 1008.8 -0.7 63
2019-07-28 14:00:00 25.4 40 Norte 59 Norte 0 1009.3 -0.9 69
2019-07-28 13:00:00 26.4 35 Norte 55 Norte 0 1009.6 -0.6 63
2019-07-28 12:00:00 25.5 32 Norte 58 Norte 0 1009.5 -0.6 66
2019-07-28 11:00:00 24 36 Norte 59 Norte 0 1010.2 0.6 71
2019-07-28 10:00:00 22.5 30 Norte 46 Norte 0 1010.2 0.9 82
2019-07-28 09:00:00 22.4 27 Norte 50 Norte 0 1010.1 0.9 75
2019-07-28 08:00:00 22.2 24 Norte 48 Norte 0 1009.6 0.3 72
2019-07-28 07:00:00 21.9 28 Norte 50 Norte 0 1009.3 -0.3 77
2019-07-28 06:00:00 21.8 27 Norte 46 Norte 0 1009.2 -1.2 78
2019-07-28 05:00:00 21.9 28 Norte 48 Norte 0 1009.3 -1.9 76
2019-07-28 04:00:00 21.9 28 Norte 50 Norte 0 1009.6 -2.2 75
2019-07-28 03:00:00 22 33 Norte 50 Noroeste 0 1010.4 -1.6 74
2019-07-28 02:00:00 21.9 33 Norte 50 Norte 0 1011.2 -1 73
2019-07-28 01:00:00 21.5 32 Norte 54 Norte 0 1011.8 0.1 73
2019-07-28 00:00:00 21.6 33 Norte 55 Norte 0 1012 0.7 71
2019-07-27 23:00:00 21.7 33 Norte 54 Norte 0 1012.2 1.4 73
2019-07-27 22:00:00 21.9 35 Norte 55 Norte 0 1011.7 1.1 72
2019-07-26 11:00:00 23.5 36 Norte 59 Norte 0 1012.4 1.7 74
2019-07-26 10:00:00 23.1 36 Norte 55 Norte 0 1012 1.8 75
2019-07-26 09:00:00 22.4 37 Norte 59 Norte 0 1011.5 1.1 76
2019-07-26 08:00:00 21.5 27 Norte 50 Norte 0 1010.7 0.3 80
2019-07-26 07:00:00 22.1 32 Norte 41 Norte 0 1010.2 -0.2 73
2019-07-26 06:00:00 21.9 25 Norte 46 Norte 0 1010.4 -1.1 75
2019-07-26 05:00:00 22 29 Norte 48 Norte 0 1010.4 -1.1 76
2019-07-26 04:00:00 22.4 32 Norte 52 Norte 0 1010.4 -1.7 74
2019-07-26 03:00:00 22.6 30 Norte 46 Norte 0 1011.5 -0.3 74
2019-07-26 02:00:00 23.6 29 Norte 50 Norte 0 1011.5 0 65
2019-07-26 01:00:00 23.5 39 Norte 55 Norte 0 1012.1 1.3 66
2019-07-26 00:00:00 22.8 33 Norte 55 Norte 0 1011.8 2 76
2019-07-25 23:00:00 23.3 38 Norte 58 Norte 0 1011.5 2.1 71
2019-07-25 22:00:00 24.3 40 Norte 59 Norte 0 1010.8 1.9 58
2019-07-25 21:00:00 26.2 35 Norte 54 Norte 0 1009.8 0.8 29
2019-07-25 20:00:00 27.2 33 Norte 52 Norte 0 1009.4 0.3 31
2019-07-25 19:00:00 26.5 33 Norte 54 Norte 0 1008.9 -0.8 51
2019-07-25 18:00:00 27.9 37 Norte 52 Norte 0 1009 -0.6 46
2019-07-25 17:00:00 28.6 33 Norte 52 Norte 0 1009.1 -1 43
2019-07-25 16:00:00 27.7 35 Norte 59 Norte 0 1009.7 -1.1 51
2019-07-25 15:00:00 27.4 36 Norte 59 Norte 0 1009.6 -1.1 47
2019-07-25 14:00:00 29.6 39 Norte 54 Norte 0 1010.1 -0.7 28
2019-07-25 13:00:00 28.7 34 Norte 54 Norte 0 1010.8 0.6 30
2019-07-25 12:00:00 29.5 38 Norte 55 Norte 0 1010.7 1 29
2019-07-25 11:00:00 27.9 32 Norte 50 Norte 0 1010.8 1.3 26
2019-07-25 10:00:00 27.7 32 Norte 48 Norte 0 1010.2 1.2 23
2019-07-25 09:00:00 26.5 26 Norte 41 Norte 0 1009.7 0.8 27
2019-07-25 08:00:00 23.3 23 Norte 37 Norte 0 1009.5 0.4 37
2019-07-25 07:00:00 23.8 24 Norte 39 Norte 0 1009 -0.3 35
2019-07-25 06:00:00 24 24 Norte 41 Norte 0 1008.9 -0.7 38
2019-07-25 05:00:00 24.3 26 Norte 41 Norte 0 1009.1 -0.8 39
2019-07-25 04:00:00 24.5 25 Norte 42 Norte 0 1009.3 -0.9 39
2019-07-25 03:00:00 24.2 25 Norte 45 Norte 0 1009.6 -0.4 42
2019-07-25 02:00:00 24.6 28 Norte 48 Norte 0 1009.9 0.2 41
2019-07-25 01:00:00 25.1 25 Norte 42 Norte 0 1010.2 0.6 33
2019-07-25 00:00:00 25.4 28 Norte 45 Norte 0 1010 0.8 30
2019-07-24 23:00:00 22.5 22 Norte 52 Norte 0 1009.7 1 64
2019-07-24 22:00:00 22.4 32 Norte 55 Norte 0 1009.6 1 70
2019-07-24 21:00:00 22.7 31 Norte 54 Norte 0 1009.2 0.9 71
2019-07-24 20:00:00 23.4 33 Norte 55 Norte 0 1008.7 0.4 67
2019-07-24 19:00:00 24.3 37 Norte 63 Norte 0 1008.6 0.5 65
2019-07-24 18:00:00 25.3 33 Norte 63 Norte 0 1008.3 -1 61
2019-07-24 17:00:00 27.7 50 Norte 61 Norte 0 1008.3 -1.2 53
2019-07-24 16:00:00 29.3 34 Norte 54 Norte 0 1008.1 -1.6 42
2019-07-24 15:00:00 26.1 37 Norte 65 Norte 0 1009.3 -1 57
2019-07-24 14:00:00 27.3 42 Norte 58 Norte 0 1009.5 -0.9 54
2019-07-24 13:00:00 26.3 40 Norte 54 Norte 0 1009.7 0 57
2019-07-24 12:00:00 25 42 Norte 55 Norte 0 1010.3 0.8 62
2019-07-24 11:00:00 24.1 44 Norte 59 Norte 0 1010.4 1.1 63
2019-07-24 10:00:00 23.3 38 Norte 55 Norte 0 1009.7 0.3 64
2019-07-24 09:00:00 22 38 Norte 52 Norte 0 1009.5 0.7 69
2019-07-24 08:00:00 20.7 31 Norte 45 Norte 0 1009.3 0.4 74
2019-07-24 07:00:00 20.7 35 Norte 46 Norte 0 1009.4 0.4 76
2019-07-24 06:00:00 20.6 28 Norte 48 Norte 0 1008.8 -0.7 75
2019-07-24 05:00:00 20.7 32 Norte 58 Norte 0 1008.9 -1.6 74
2019-07-24 04:00:00 20.7 36 Norte 54 Norte 0 1009 -2 75
2019-07-24 03:00:00 20.9 35 Norte 65 Norte 0 1009.5 -1.6 73
2019-07-24 02:00:00 21 37 Norte 59 Norte 0 1010.5 -1.1 72
2019-07-24 01:00:00 21.1 36 Norte 59 Norte 0 1011 0 71
2019-07-24 00:00:00 21.3 32 Norte 55 Norte 0 1011.1 0.8 71
2019-07-23 23:00:00 21.4 32 Norte 59 Norte 0 1011.6 1.8 72
2019-07-23 22:00:00 21.6 38 Norte 61 Norte 0 1011 1.4 71
2019-07-23 21:00:00 22 34 Norte 61 Norte 0 1010.3 0.8 67
2019-07-23 20:00:00 23 39 Norte 65 Norte 0 1009.8 -0.6 63
2019-07-23 19:00:00 23.9 34 Norte 61 Norte 0 1009.6 -1.3 60
2019-07-23 18:00:00 25 44 Norte 63 Norte 0 1009.5 -1.8 58
2019-07-23 17:00:00 25.2 46 Norte 61 Norte 0 1010.4 -1.2 56
2019-07-23 16:00:00 25.1 39 Norte 67 Norte 0 1010.9 -0.9 57
2019-07-23 15:00:00 25.6 51 Norte 65 Norte 0 1011.3 -0.6 57
2019-07-23 14:00:00 25.6 45 Norte 61 Norte 0 1011.6 -0.3 56
2019-07-23 13:00:00 24.4 40 Norte 63 Norte 0 1011.8 0.2 59
2019-07-23 12:00:00 24.3 44 Norte 65 Norte 0 1011.9 0.6 59
2019-07-23 11:00:00 23.1 36 Norte 55 Norte 0 1011.9 0.7 63
2019-07-23 10:00:00 22.4 41 Norte 58 Norte 0 1011.6 0.5 65
2019-07-23 09:00:00 21.4 35 Norte 54 Norte 0 1011.3 0.3 68
2019-07-23 08:00:00 20.4 32 Norte 48 Norte 0 1011.2 0.1 72
2019-07-23 07:00:00 20.3 30 Norte 52 Norte 0 1011.1 -0.2 71
2019-07-23 06:00:00 20.6 28 Norte 50 Norte 0 1011 -0.5 71
2019-07-23 05:00:00 20.9 35 Norte 55 Norte 0 1011.1 -1 71
2019-07-23 04:00:00 21.2 30 Norte 52 Norte 0 1011.3 -1.3 72
2019-07-23 03:00:00 21.1 33 Norte 54 Norte 0 1011.5 -1.4 71
2019-07-23 02:00:00 21.1 33 Norte 55 Norte 0 1012.1 -0.5 70
2019-07-23 01:00:00 21.4 39 Norte 55 Norte 0 1012.6 0.2 71
2019-07-23 00:00:00 21.2 33 Norte 58 Norte 0 1012.9 0.7 71
2019-07-22 23:00:00 21.3 33 Norte 52 Norte 0 1012.6 1 73
2019-07-22 22:00:00 21.4 37 Norte 52 Norte 0 1012.4 0.9 72
2019-07-22 21:00:00 21.9 26 Norte 55 Norte 0 1012.2 0.6 71
2019-07-22 20:00:00 22.8 32 Norte 55 Norte 0 1011.6 0 67
2019-07-22 19:00:00 23.9 38 Norte 59 Norte 0 1011.5 -0.6 63
2019-07-22 18:00:00 24.7 38 Norte 59 Norte 0 1011.6 -0.9 60
2019-07-22 17:00:00 24.8 41 Norte 65 Norte 0 1011.6 -1.5 61
2019-07-22 16:00:00 25.3 39 Norte 65 Norte 0 1012.1 -1.3 57
2019-07-22 15:00:00 25.5 50 Norte 65 Norte 0 1012.5 -1 58
2019-07-22 14:00:00 25.6 50 Norte 68 Norte 0 1013.1 -0.3 58
2019-07-22 13:00:00 25.1 49 Norte 63 Norte 0 1013.4 0 60
2019-07-22 12:00:00 24.2 33 Norte 59 Norte 0 1013.5 0.2 61
2019-07-22 11:00:00 23.4 39 Norte 59 Norte 0 1013.4 0.3 64
2019-07-22 10:00:00 22.6 36 Norte 52 Norte 0 1013.4 0.5 67
2019-07-22 09:00:00 21.4 32 Norte 50 Norte 0 1013.3 0.5 71
2019-07-22 08:00:00 20.9 32 Norte 54 Norte 0 1013.1 0.1 73
2019-07-22 07:00:00 20.9 27 Norte 50 Norte 0 1012.9 -0.2 74
2019-07-22 06:00:00 20.9 31 Norte 50 Norte 0 1012.8 -0.7 72
2019-07-22 05:00:00 21.1 29 Norte 48 Norte 0 1013 -1.1 74
2019-07-22 04:00:00 21.3 28 Norte 46 Norte 0 1013.1 -1.4 73
2019-07-22 03:00:00 21.1 31 Norte 52 Norte 0 1013.5 -1.5 73
2019-07-22 02:00:00 21.3 29 Norte 48 Norte 0 1014.1 -0.9 73
2019-07-22 01:00:00 21.4 26 Norte 42 Norte 0 1014.5 0.4 74
2019-07-22 00:00:00 21.7 27 Norte 48 Norte 0 1015 1.4 73
2019-07-21 23:00:00 21.8 28 Norte 42 Norte 0 1015 1.7 74
2019-07-21 22:00:00 21.8 31 Norte 48 Norte 0 1014.1 0.8 71
2019-07-21 21:00:00 22.1 32 Norte 52 Norte 0 1013.6 0.7 71
2019-07-21 20:00:00 23.4 30 Norte 54 Norte 0 1013.3 0.4 68
2019-07-21 19:00:00 24 37 Norte 59 Norte 0 1013.3 -0.2 64
2019-07-21 18:00:00 25.2 49 Norte 63 Norte 0 1012.9 -1.2 61
2019-07-21 17:00:00 25.1 41 Norte 59 Norte 0 1012.9 -1.5 59
2019-07-21 16:00:00 25.4 41 Norte 58 Norte 0 1013.5 -0.5 61
2019-07-21 15:00:00 25.7 41 Norte 61 Norte 0 1014.1 -0.2 58
2019-07-21 14:00:00 25.5 46 Norte 65 Norte 0 1014.4 0.3 58
2019-07-21 13:00:00 25.5 46 Norte 61 Norte 0 1014 -0.1 58
2019-07-21 12:00:00 24.8 46 Norte 55 Norte 0 1014.3 0.3 63
2019-07-21 11:00:00 23.8 38 Norte 54 Norte 0 1014.1 0.3 66
2019-07-21 10:00:00 22.5 29 Norte 46 Norte 0 1014.1 1 68
2019-07-21 09:00:00 22 23 Norte 39 Norte 0 1014 1.2 71
2019-07-21 08:00:00 21.4 26 Norte 45 Norte 0 1013.8 0.9 73
2019-07-21 07:00:00 21.5 26 Norte 46 Norte 0 1013.1 -0.2 74
2019-07-21 06:00:00 21.5 24 Norte 45 Norte 0 1012.8 -0.8 74
2019-07-21 05:00:00 21.6 29 Norte 46 Norte 0 1012.9 -1.1 74
2019-07-21 04:00:00 21.6 30 Norte 46 Norte 0 1013.3 -1.2 76
2019-07-21 03:00:00 21.7 29 Norte 45 Norte 0 1013.6 -1 77
2019-07-21 02:00:00 21.9 27 Norte 48 Norte 0 1014 -0.3 72
2019-07-21 01:00:00 22 31 Norte 50 Norte 0 1014.5 0.4 72
2019-07-21 00:00:00 22.1 33 Norte 50 Norte 0 1014.6 1.8 71
2019-07-20 23:00:00 22.4 31 Norte 48 Norte 0 1014.3 2 71
2019-07-20 22:00:00 22.8 26 Norte 46 Norte 0 1014.1 2 69
2019-07-20 21:00:00 22.9 30 Norte 55 Norte 0 1012.8 1.1 68
2019-07-20 20:00:00 23.5 31 Norte 55 Norte 0 1012.3 0.5 62
2019-07-20 19:00:00 24.6 33 Norte 54 Norte 0 1012.1 0 59
2019-07-20 18:00:00 25.5 42 Norte 55 Norte 0 1011.7 -1 56
2019-07-20 17:00:00 25.8 34 Norte 63 Norte 0 1011.8 -1.7 54
2019-07-20 16:00:00 26.8 47 Norte 63 Norte 0 1012.1 -1.7 54
2019-07-20 15:00:00 26.3 46 Norte 59 Norte 0 1012.7 -0.9 54
2019-07-20 14:00:00 25.8 40 Norte 54 Norte 0 1013.5 0.8 58
2019-07-20 13:00:00 25.5 42 Norte 54 Nordeste 0 1013.8 1.5 56
2019-07-20 12:00:00 23 31 Norte 52 Norte 0 1013.6 1.8 71
2019-07-20 11:00:00 23 31 Norte 48 Norte 0 1012.7 1.3 70
2019-07-20 10:00:00 22.3 27 Norte 46 Norte 0 1012.3 1.6 73
2019-07-20 09:00:00 21.6 29 Norte 48 Norte 0 1011.8 1 77
2019-07-20 08:00:00 21.2 23 Norte 46 Norte 0 1011.4 0.9 78
2019-07-20 07:00:00 21.7 37 Norte 50 Norte 0 1010.7 0 73
2019-07-20 06:00:00 21.3 28 Norte 50 Norte 0 1010.8 0 76
2019-07-20 05:00:00 21.6 27 Norte 48 Norte 0 1010.5 -0.4 72
2019-07-20 04:00:00 21.4 33 Norte 46 Norte 0 1010.7 -0.6 74
2019-07-20 03:00:00 21.4 28 Norte 48 Norte 0 1010.8 -1 74
2019-07-20 02:00:00 21.7 31 Norte 50 Norte 0 1010.9 -0.6 75
2019-07-20 01:00:00 21.8 29 Norte 50 Norte 0 1011.3 0.1 78
2019-07-20 00:00:00 22.2 32 Norte 48 Norte 0 1011.8 1 72
2019-07-19 23:00:00 22.5 32 Norte 50 Norte 0 1011.5 1.2 66
2019-07-19 22:00:00 22.5 31 Norte 50 Norte 0 1011.2 1.2 68
2019-07-19 21:00:00 22.5 31 Norte 59 Norte 0 1010.8 0.8 67
2019-07-19 20:00:00 23.6 35 Norte 58 Norte 0 1010.3 0.2 66
2019-07-19 19:00:00 24.6 37 Norte 61 Norte 0 1010 -0.6 59
2019-07-19 18:00:00 25.1 40 Norte 61 Norte 0 1010 -1.1 55
2019-07-19 17:00:00 25.7 37 Norte 59 Norte 0 1010.1 -1 52
2019-07-19 16:00:00 26.1 37 Norte 59 Norte 0 1010.6 -1.3 52
2019-07-19 15:00:00 26.1 35 Norte 63 Norte 0 1011.1 -0.8 50
2019-07-19 14:00:00 25.8 41 Norte 67 Norte 0 1011.1 -0.5 51
2019-07-19 13:00:00 25.4 38 Norte 61 Norte 0 1011.9 1 52
2019-07-19 12:00:00 24.7 36 Norte 59 Norte 0 1011.9 1.2 54
2019-07-19 11:00:00 23.8 42 Norte 61 Norte 0 1011.6 1.3 57
2019-07-19 10:00:00 22.5 34 Norte 61 Norte 0 1010.9 0.6 62
2019-07-19 09:00:00 21.8 30 Norte 52 Norte 0 1010.7 0.7 59
2019-07-19 08:00:00 21.1 26 Norte 45 Norte 0 1010.3 0.3 69
2019-07-19 07:00:00 21 22 Norte 48 Norte 0 1010.3 -0.2 62
2019-07-19 06:00:00 21.1 30 Norte 48 Norte 0 1010 -0.9 70
2019-07-19 05:00:00 21 27 Norte 45 Norte 0 1010 -1.1 66
2019-07-19 04:00:00 21.1 26 Norte 46 Norte 0 1010.5 -0.9 67
2019-07-19 03:00:00 21.2 26 Norte 46 Norte 0 1010.9 -1 64
2019-07-19 02:00:00 21.4 27 Norte 61 Norte 0 1011.1 -0.6 62
2019-07-19 01:00:00 21.3 28 Norte 46 Norte 0 1011.4 0.4 65
2019-07-19 00:00:00 21.5 28 Norte 50 Norte 0 1011.9 1 63